Aplicació Alertes

Dades de l'estació automàtica la Vall d'en Bas

?
?
Resum diari 23:00 TU
Dades diàries de l'estació meteorològica
Temperatura mitjana 5.2 °C
Temperatura màxima 18.7 °C 12:56 TU
Temperatura mínima -2.4 °C 7:03 TU
Humitat relativa mitjana 82%
Precipitació acumulada 0.0 mm
Ratxa màxima del vent (2 m) 15.1 km/h - 277º 13:35 TU
Irradiació solar global 10.0 MJ/m2

El tram horari està expressat en Temps Universal (TU). Cal sumar una hora en horari d'hivern i dues en horari d'estiu per passar a l'hora oficial.

la Vall d'en Bas

Metadades estació meteorol´gica
Municipi La Vall d'en Bas
Comarca Garrotxa
Altitud 461 m
Data alta 16.03.2000
Estat actual Operativa
Dades de període
Període
TU
TM
°C
TX
°C
TN
°C
HRM
%
PPT
mm
VVM (2 m)
km/h
DVM (2 m)
graus
VVX (2 m)
km/h
RS
W/m2
00:00 - 00:30 0.2 0.4 -0.3 99 0.0 1.8 263 3.2 0
00:30 - 01:00 -0.6 -0.3 -0.8 99 0.0 1.4 209 4.3 0
01:00 - 01:30 -0.6 0.0 -1.0 100 0.0 0.7 318 4.3 0
01:30 - 02:00 -0.8 0.1 -1.3 100 0.0 0.7 322 2.9 0
02:00 - 02:30 -1.4 -1.1 -1.7 100 0.0 1.1 221 4.7 0
02:30 - 03:00 -1.1 -0.9 -1.2 100 0.0 1.1 276 3.2 0
03:00 - 03:30 -1.1 -0.7 -1.4 100 0.0 0.7 40 2.9 0
03:30 - 04:00 -1.2 -0.9 -1.6 100 0.0 2.2 262 4.7 0
04:00 - 04:30 -1.4 -1.3 -1.7 100 0.0 1.4 184 4.3 0
04:30 - 05:00 -1.5 -1.1 -1.8 100 0.0 1.4 232 4.3 0
05:00 - 05:30 -1.8 -1.4 -2.3 100 0.0 1.4 327 3.2 0
05:30 - 06:00 -1.9 -1.6 -2.2 100 0.0 1.1 268 3.2 0
06:00 - 06:30 -2.2 -1.9 -2.4 99 0.0 1.4 270 3.6 0
06:30 - 07:00 -2.1 -1.8 -2.4 99 0.0 0.7 229 2.9 4
07:00 - 07:30 -2.1 -1.9 -2.4 99 0.0 1.1 224 2.9 26
07:30 - 08:00 -1.6 -0.9 -2.0 99 0.0 1.1 231 3.6 93
08:00 - 08:30 0.5 1.9 -0.8 100 0.0 0.4 211 1.8 251
08:30 - 09:00 3.2 5.1 2.0 100 0.0 1.4 209 3.6 264
09:00 - 09:30 5.9 8.0 4.6 98 0.0 1.8 212 4.3 347
09:30 - 10:00 9.6 11.5 8.1 74 0.0 1.4 172 3.6 393
10:00 - 10:30 11.6 12.6 11.0 64 0.0 0.7 354 2.2 434
10:30 - 11:00 13.3 14.1 12.7 53 0.0 1.1 107 4.0 466
11:00 - 11:30 14.9 15.6 14.1 48 0.0 1.4 89 4.7 484
11:30 - 12:00 16.5 16.9 15.8 44 0.0 2.2 77 6.5 490
12:00 - 12:30 16.8 17.9 16.2 43 0.0 2.2 74 6.8 474
12:30 - 13:00 18.0 18.7 17.3 39 0.0 2.5 229 10.1 440
13:00 - 13:30 17.5 18.2 17.0 39 0.0 5.0 240 12.2 410
13:30 - 14:00 17.0 17.2 16.8 42 0.0 7.9 232 15.1 354
14:00 - 14:30 16.6 16.8 16.3 45 0.0 8.6 221 14.0 290
14:30 - 15:00 16.3 16.6 16.0 49 0.0 5.8 195 10.4 212
15:00 - 15:30 14.9 15.9 14.2 53 0.0 7.2 239 13.3 137
15:30 - 16:00 12.8 14.2 10.9 57 0.0 6.8 226 11.5 52
16:00 - 16:30 10.4 10.8 9.8 63 0.0 5.4 245 13.0 6
16:30 - 17:00 9.4 10.3 8.8 67 0.0 2.5 209 6.8 0
17:00 - 17:30 8.3 9.6 7.0 71 0.0 2.5 216 6.1 0
17:30 - 18:00 6.8 7.8 6.1 79 0.0 3.2 218 6.8 0
18:00 - 18:30 5.1 6.0 4.4 86 0.0 2.9 214 5.4 0
18:30 - 19:00 4.9 5.4 3.9 89 0.0 1.1 206 2.9 0
19:00 - 19:30 3.1 4.0 2.4 92 0.0 2.2 216 4.7 0
19:30 - 20:00 2.8 3.2 2.3 94 0.0 2.5 201 4.0 0
20:00 - 20:30 2.9 3.3 2.2 95 0.0 1.4 234 4.7 0
20:30 - 21:00 2.2 2.8 1.7 96 0.0 1.4 255 3.2 0
21:00 - 21:30 1.6 2.3 1.1 97 0.0 1.4 222 5.0 0
21:30 - 22:00 1.2 1.8 0.8 97 0.0 0.7 226 3.6 0
22:00 - 22:30 0.9 1.4 0.5 97 0.0 1.4 267 3.6 0
22:30 - 23:00 0.6 1.2 -0.2 98 0.0 2.2 203 5.0 0
23:00 - 23:30 0.4 1.1 -0.2 98 0.0 1.4 297 3.6 0

Les dades en taronja només han passat un control de qualitat automàtic. Resta pendent la seva validació definitiva.